sensor_id;sensor_type;location;lat;lon;timestamp;P1;durP1;ratioP1;P2;durP2;ratioP2
38435;SDS011;24220;48.168;14.024;2022-10-16T00:01:42;3.85;;;3.55;;
38435;SDS011;24220;48.168;14.024;2022-10-16T00:04:10;3.47;;;3.17;;
38435;SDS011;24220;48.168;14.024;2022-10-16T00:06:39;3.95;;;3.33;;
38435;SDS011;24220;48.168;14.024;2022-10-16T00:09:07;3.40;;;3.10;;
38435;SDS011;24220;48.168;14.024;2022-10-16T00:11:37;3.72;;;3.10;;
38435;SDS011;24220;48.168;14.024;2022-10-16T00:14:08;3.40;;;3.10;;
38435;SDS011;24220;48.168;14.024;2022-10-16T00:16:37;3.55;;;3.25;;
38435;SDS011;24220;48.168;14.024;2022-10-16T00:19:05;3.22;;;2.97;;
38435;SDS011;24220;48.168;14.024;2022-10-16T00:21:33;3.80;;;3.50;;
38435;SDS011;24220;48.168;14.024;2022-10-16T00:24:02;4.97;;;4.00;;
38435;SDS011;24220;48.168;14.024;2022-10-16T00:26:34;4.30;;;3.90;;
38435;SDS011;24220;48.168;14.024;2022-10-16T00:29:03;4.63;;;4.22;;
38435;SDS011;24220;48.168;14.024;2022-10-16T00:31:33;4.10;;;3.70;;
38435;SDS011;24220;48.168;14.024;2022-10-16T00:34:02;4.05;;;3.72;;
38435;SDS011;24220;48.168;14.024;2022-10-16T00:36:29;4.53;;;3.58;;
38435;SDS011;24220;48.168;14.024;2022-10-16T00:38:57;4.15;;;3.85;;
38435;SDS011;24220;48.168;14.024;2022-10-16T00:41:32;4.53;;;3.95;;
38435;SDS011;24220;48.168;14.024;2022-10-16T00:44:03;4.60;;;4.20;;
38435;SDS011;24220;48.168;14.024;2022-10-16T00:46:50;4.45;;;4.05;;
38435;SDS011;24220;48.168;14.024;2022-10-16T00:49:20;5.50;;;4.07;;
38435;SDS011;24220;48.168;14.024;2022-10-16T00:51:50;5.03;;;4.40;;
38435;SDS011;24220;48.168;14.024;2022-10-16T00:54:21;5.57;;;4.47;;
38435;SDS011;24220;48.168;14.024;2022-10-16T00:56:51;6.10;;;4.63;;
38435;SDS011;24220;48.168;14.024;2022-10-16T00:59:24;6.80;;;4.57;;
38435;SDS011;24220;48.168;14.024;2022-10-16T01:01:55;16.02;;;4.82;;
38435;SDS011;24220;48.168;14.024;2022-10-16T01:04:24;8.07;;;4.20;;
38435;SDS011;24220;48.168;14.024;2022-10-16T01:09:31;4.63;;;4.22;;
38435;SDS011;24220;48.168;14.024;2022-10-16T01:17:44;4.60;;;4.10;;
38435;SDS011;24220;48.168;14.024;2022-10-16T01:20:18;4.80;;;4.30;;
38435;SDS011;24220;48.168;14.024;2022-10-16T01:22:54;4.55;;;4.15;;
38435;SDS011;24220;48.168;14.024;2022-10-16T01:25:36;5.25;;;4.43;;
38435;SDS011;24220;48.168;14.024;2022-10-16T01:28:27;5.13;;;4.00;;
38435;SDS011;24220;48.168;14.024;2022-10-16T01:31:01;6.47;;;4.13;;
38435;SDS011;24220;48.168;14.024;2022-10-16T01:33:35;12.55;;;4.20;;
38435;SDS011;24220;48.168;14.024;2022-10-16T01:36:14;6.03;;;4.55;;
38435;SDS011;24220;48.168;14.024;2022-10-16T01:38:45;3.70;;;3.40;;
38435;SDS011;24220;48.168;14.024;2022-10-16T01:41:18;4.45;;;4.00;;
38435;SDS011;24220;48.168;14.024;2022-10-16T01:44:14;6.20;;;4.03;;
38435;SDS011;24220;48.168;14.024;2022-10-16T01:46:59;4.20;;;3.90;;
38435;SDS011;24220;48.168;14.024;2022-10-16T01:49:29;4.82;;;3.50;;
38435;SDS011;24220;48.168;14.024;2022-10-16T01:54:28;7.18;;;4.15;;
38435;SDS011;24220;48.168;14.024;2022-10-16T01:56:59;7.03;;;4.25;;
38435;SDS011;24220;48.168;14.024;2022-10-16T01:59:30;6.28;;;4.53;;
38435;SDS011;24220;48.168;14.024;2022-10-16T02:04:28;15.10;;;4.20;;
38435;SDS011;24220;48.168;14.024;2022-10-16T02:07:02;8.55;;;4.20;;
38435;SDS011;24220;48.168;14.024;2022-10-16T02:09:30;8.07;;;4.20;;
38435;SDS011;24220;48.168;14.024;2022-10-16T02:12:00;13.88;;;4.97;;
38435;SDS011;24220;48.168;14.024;2022-10-16T02:14:35;17.67;;;4.22;;
38435;SDS011;24220;48.168;14.024;2022-10-16T02:17:16;14.02;;;5.00;;
38435;SDS011;24220;48.168;14.024;2022-10-16T02:19:44;25.13;;;5.05;;
38435;SDS011;24220;48.168;14.024;2022-10-16T02:22:17;8.13;;;4.00;;
38435;SDS011;24220;48.168;14.024;2022-10-16T02:25:34;23.58;;;4.10;;
38435;SDS011;24220;48.168;14.024;2022-10-16T02:30:27;12.30;;;3.58;;
38435;SDS011;24220;48.168;14.024;2022-10-16T02:32:56;11.32;;;3.38;;
38435;SDS011;24220;48.168;14.024;2022-10-16T02:35:27;10.33;;;3.60;;
38435;SDS011;24220;48.168;14.024;2022-10-16T02:37:55;8.45;;;3.60;;
38435;SDS011;24220;48.168;14.024;2022-10-16T02:40:24;3.10;;;2.80;;
38435;SDS011;24220;48.168;14.024;2022-10-16T02:42:53;17.55;;;2.63;;
38435;SDS011;24220;48.168;14.024;2022-10-16T02:45:24;14.68;;;2.80;;
38435;SDS011;24220;48.168;14.024;2022-10-16T02:47:54;7.72;;;2.50;;
38435;SDS011;24220;48.168;14.024;2022-10-16T02:50:23;15.00;;;2.65;;
38435;SDS011;24220;48.168;14.024;2022-10-16T02:52:51;8.07;;;2.80;;
38435;SDS011;24220;48.168;14.024;2022-10-16T02:55:19;9.20;;;2.85;;
38435;SDS011;24220;48.168;14.024;2022-10-16T02:57:48;16.42;;;3.22;;
38435;SDS011;24220;48.168;14.024;2022-10-16T03:00:16;12.85;;;3.08;;
38435;SDS011;24220;48.168;14.024;2022-10-16T03:02:46;3.40;;;2.95;;
38435;SDS011;24220;48.168;14.024;2022-10-16T03:05:14;6.55;;;2.97;;
38435;SDS011;24220;48.168;14.024;2022-10-16T03:07:41;6.45;;;3.50;;
38435;SDS011;24220;48.168;14.024;2022-10-16T03:10:09;15.15;;;3.70;;
38435;SDS011;24220;48.168;14.024;2022-10-16T03:12:36;8.35;;;3.80;;
38435;SDS011;24220;48.168;14.024;2022-10-16T03:15:03;7.43;;;3.53;;
38435;SDS011;24220;48.168;14.024;2022-10-16T03:17:31;7.70;;;3.35;;
38435;SDS011;24220;48.168;14.024;2022-10-16T03:19:59;9.82;;;3.55;;
38435;SDS011;24220;48.168;14.024;2022-10-16T03:22:29;7.82;;;3.65;;
38435;SDS011;24220;48.168;14.024;2022-10-16T03:24:56;7.43;;;3.65;;
38435;SDS011;24220;48.168;14.024;2022-10-16T03:27:26;15.15;;;3.20;;
38435;SDS011;24220;48.168;14.024;2022-10-16T03:29:55;16.40;;;3.60;;
38435;SDS011;24220;48.168;14.024;2022-10-16T03:32:23;14.32;;;3.33;;
38435;SDS011;24220;48.168;14.024;2022-10-16T03:34:51;13.30;;;3.30;;
38435;SDS011;24220;48.168;14.024;2022-10-16T03:37:24;19.98;;;3.35;;
38435;SDS011;24220;48.168;14.024;2022-10-16T03:39:52;8.52;;;3.40;;
38435;SDS011;24220;48.168;14.024;2022-10-16T03:42:19;18.15;;;3.55;;
38435;SDS011;24220;48.168;14.024;2022-10-16T03:44:49;8.63;;;3.05;;
38435;SDS011;24220;48.168;14.024;2022-10-16T03:47:16;4.53;;;2.95;;
38435;SDS011;24220;48.168;14.024;2022-10-16T03:49:48;11.27;;;3.20;;
38435;SDS011;24220;48.168;14.024;2022-10-16T03:52:16;14.95;;;3.30;;
38435;SDS011;24220;48.168;14.024;2022-10-16T03:54:46;5.80;;;2.92;;
38435;SDS011;24220;48.168;14.024;2022-10-16T03:57:13;9.82;;;3.10;;
38435;SDS011;24220;48.168;14.024;2022-10-16T03:59:43;14.00;;;3.47;;
38435;SDS011;24220;48.168;14.024;2022-10-16T04:02:11;14.68;;;3.85;;
38435;SDS011;24220;48.168;14.024;2022-10-16T04:04:38;20.27;;;3.58;;
38435;SDS011;24220;48.168;14.024;2022-10-16T04:07:08;13.18;;;3.60;;
38435;SDS011;24220;48.168;14.024;2022-10-16T04:09:35;8.70;;;3.55;;
38435;SDS011;24220;48.168;14.024;2022-10-16T04:12:03;9.98;;;3.53;;
38435;SDS011;24220;48.168;14.024;2022-10-16T04:14:33;10.15;;;3.90;;
38435;SDS011;24220;48.168;14.024;2022-10-16T04:17:00;7.95;;;3.55;;
38435;SDS011;24220;48.168;14.024;2022-10-16T04:19:28;4.15;;;3.75;;
38435;SDS011;24220;48.168;14.024;2022-10-16T04:21:57;3.65;;;3.35;;
38435;SDS011;24220;48.168;14.024;2022-10-16T04:24:24;17.50;;;4.15;;
38435;SDS011;24220;48.168;14.024;2022-10-16T04:26:54;13.13;;;3.95;;
38435;SDS011;24220;48.168;14.024;2022-10-16T04:29:21;7.95;;;4.28;;
38435;SDS011;24220;48.168;14.024;2022-10-16T04:31:51;11.40;;;4.18;;
38435;SDS011;24220;48.168;14.024;2022-10-16T04:34:18;13.00;;;3.60;;
38435;SDS011;24220;48.168;14.024;2022-10-16T04:36:49;11.27;;;3.70;;
38435;SDS011;24220;48.168;14.024;2022-10-16T04:39:16;7.88;;;4.00;;
38435;SDS011;24220;48.168;14.024;2022-10-16T04:41:43;6.85;;;4.00;;
38435;SDS011;24220;48.168;14.024;2022-10-16T04:44:11;5.72;;;4.00;;
38435;SDS011;24220;48.168;14.024;2022-10-16T04:46:38;6.68;;;3.55;;
38435;SDS011;24220;48.168;14.024;2022-10-16T04:49:05;9.80;;;3.47;;
38435;SDS011;24220;48.168;14.024;2022-10-16T04:51:32;11.98;;;3.55;;
38435;SDS011;24220;48.168;14.024;2022-10-16T04:54:00;7.90;;;3.30;;
38435;SDS011;24220;48.168;14.024;2022-10-16T04:56:27;15.20;;;3.03;;
38435;SDS011;24220;48.168;14.024;2022-10-16T04:58:57;4.47;;;2.78;;
38435;SDS011;24220;48.168;14.024;2022-10-16T05:01:24;5.75;;;3.10;;
38435;SDS011;24220;48.168;14.024;2022-10-16T05:03:54;4.13;;;2.90;;
38435;SDS011;24220;48.168;14.024;2022-10-16T05:06:28;6.07;;;2.83;;
38435;SDS011;24220;48.168;14.024;2022-10-16T05:08:58;13.20;;;6.15;;
38435;SDS011;24220;48.168;14.024;2022-10-16T05:11:28;15.13;;;7.60;;
38435;SDS011;24220;48.168;14.024;2022-10-16T05:13:55;10.93;;;4.07;;
38435;SDS011;24220;48.168;14.024;2022-10-16T05:16:25;10.63;;;3.00;;
38435;SDS011;24220;48.168;14.024;2022-10-16T05:18:53;7.80;;;2.70;;
38435;SDS011;24220;48.168;14.024;2022-10-16T05:21:38;11.77;;;3.15;;
38435;SDS011;24220;48.168;14.024;2022-10-16T05:24:07;7.47;;;2.72;;
38435;SDS011;24220;48.168;14.024;2022-10-16T05:26:35;7.93;;;2.50;;
38435;SDS011;24220;48.168;14.024;2022-10-16T05:29:05;9.70;;;2.60;;
38435;SDS011;24220;48.168;14.024;2022-10-16T05:34:02;9.75;;;2.42;;
38435;SDS011;24220;48.168;14.024;2022-10-16T05:36:31;8.25;;;3.28;;
38435;SDS011;24220;48.168;14.024;2022-10-16T05:38:59;11.88;;;4.03;;
38435;SDS011;24220;48.168;14.024;2022-10-16T05:41:26;10.63;;;2.70;;
38435;SDS011;24220;48.168;14.024;2022-10-16T05:43:53;14.45;;;2.67;;
38435;SDS011;24220;48.168;14.024;2022-10-16T05:46:21;17.58;;;2.70;;
38435;SDS011;24220;48.168;14.024;2022-10-16T05:48:51;8.10;;;2.53;;
38435;SDS011;24220;48.168;14.024;2022-10-16T05:51:19;9.23;;;4.43;;
38435;SDS011;24220;48.168;14.024;2022-10-16T05:53:47;17.25;;;3.60;;
38435;SDS011;24220;48.168;14.024;2022-10-16T05:56:14;16.23;;;3.05;;
38435;SDS011;24220;48.168;14.024;2022-10-16T05:58:42;11.10;;;2.80;;
38435;SDS011;24220;48.168;14.024;2022-10-16T06:01:12;14.82;;;2.95;;
38435;SDS011;24220;48.168;14.024;2022-10-16T06:03:44;19.08;;;4.47;;
38435;SDS011;24220;48.168;14.024;2022-10-16T06:06:17;10.25;;;3.95;;
38435;SDS011;24220;48.168;14.024;2022-10-16T06:08:52;4.75;;;2.88;;
38435;SDS011;24220;48.168;14.024;2022-10-16T06:11:25;6.15;;;2.70;;
38435;SDS011;24220;48.168;14.024;2022-10-16T06:13:57;7.85;;;3.83;;
38435;SDS011;24220;48.168;14.024;2022-10-16T06:16:28;5.57;;;2.65;;
38435;SDS011;24220;48.168;14.024;2022-10-16T06:18:55;6.70;;;2.90;;
38435;SDS011;24220;48.168;14.024;2022-10-16T06:21:23;5.68;;;2.83;;
38435;SDS011;24220;48.168;14.024;2022-10-16T06:23:53;11.73;;;2.90;;
38435;SDS011;24220;48.168;14.024;2022-10-16T06:26:24;16.42;;;2.80;;
38435;SDS011;24220;48.168;14.024;2022-10-16T06:28:55;2.60;;;2.40;;
38435;SDS011;24220;48.168;14.024;2022-10-16T06:31:23;9.48;;;2.97;;
38435;SDS011;24220;48.168;14.024;2022-10-16T06:33:54;13.55;;;4.95;;
38435;SDS011;24220;48.168;14.024;2022-10-16T06:36:23;5.40;;;3.28;;
38435;SDS011;24220;48.168;14.024;2022-10-16T06:38:53;44.22;;;15.27;;
38435;SDS011;24220;48.168;14.024;2022-10-16T06:41:21;21.20;;;6.68;;
38435;SDS011;24220;48.168;14.024;2022-10-16T06:43:49;10.52;;;3.67;;
38435;SDS011;24220;48.168;14.024;2022-10-16T06:46:20;7.47;;;2.58;;
38435;SDS011;24220;48.168;14.024;2022-10-16T06:48:49;2.80;;;2.60;;
38435;SDS011;24220;48.168;14.024;2022-10-16T06:51:17;4.18;;;2.47;;
38435;SDS011;24220;48.168;14.024;2022-10-16T06:53:49;4.68;;;2.03;;
38435;SDS011;24220;48.168;14.024;2022-10-16T06:56:30;4.22;;;2.50;;
38435;SDS011;24220;48.168;14.024;2022-10-16T06:59:00;8.70;;;2.70;;
38435;SDS011;24220;48.168;14.024;2022-10-16T07:01:28;13.57;;;2.78;;
38435;SDS011;24220;48.168;14.024;2022-10-16T07:03:56;9.85;;;3.22;;
38435;SDS011;24220;48.168;14.024;2022-10-16T07:06:24;2.65;;;2.45;;
38435;SDS011;24220;48.168;14.024;2022-10-16T07:08:53;3.78;;;2.80;;
38435;SDS011;24220;48.168;14.024;2022-10-16T07:11:21;4.28;;;3.30;;
38435;SDS011;24220;48.168;14.024;2022-10-16T07:13:50;3.72;;;3.33;;
38435;SDS011;24220;48.168;14.024;2022-10-16T07:16:24;3.85;;;3.55;;
38435;SDS011;24220;48.168;14.024;2022-10-16T07:18:54;15.27;;;4.50;;
38435;SDS011;24220;48.168;14.024;2022-10-16T07:21:30;5.85;;;4.80;;
38435;SDS011;24220;48.168;14.024;2022-10-16T07:24:03;6.13;;;3.90;;
38435;SDS011;24220;48.168;14.024;2022-10-16T07:26:32;11.10;;;3.83;;
38435;SDS011;24220;48.168;14.024;2022-10-16T07:29:01;11.80;;;3.38;;
38435;SDS011;24220;48.168;14.024;2022-10-16T07:31:30;10.07;;;3.70;;
38435;SDS011;24220;48.168;14.024;2022-10-16T07:34:00;6.43;;;3.40;;
38435;SDS011;24220;48.168;14.024;2022-10-16T07:36:29;12.02;;;4.53;;
38435;SDS011;24220;48.168;14.024;2022-10-16T07:38:57;7.60;;;4.40;;
38435;SDS011;24220;48.168;14.024;2022-10-16T07:41:27;4.75;;;4.28;;
38435;SDS011;24220;48.168;14.024;2022-10-16T07:43:59;5.47;;;4.97;;
38435;SDS011;24220;48.168;14.024;2022-10-16T07:46:27;6.97;;;5.00;;
38435;SDS011;24220;48.168;14.024;2022-10-16T07:48:55;6.28;;;5.03;;
38435;SDS011;24220;48.168;14.024;2022-10-16T07:51:23;4.40;;;4.00;;
38435;SDS011;24220;48.168;14.024;2022-10-16T07:53:51;4.10;;;3.75;;
38435;SDS011;24220;48.168;14.024;2022-10-16T07:56:21;11.40;;;6.70;;
38435;SDS011;24220;48.168;14.024;2022-10-16T07:58:49;12.05;;;5.05;;
38435;SDS011;24220;48.168;14.024;2022-10-16T08:01:20;7.80;;;4.93;;
38435;SDS011;24220;48.168;14.024;2022-10-16T08:03:52;10.90;;;6.22;;
38435;SDS011;24220;48.168;14.024;2022-10-16T08:06:22;10.57;;;6.60;;
38435;SDS011;24220;48.168;14.024;2022-10-16T08:08:54;6.43;;;4.97;;
38435;SDS011;24220;48.168;14.024;2022-10-16T08:11:26;4.50;;;4.10;;
38435;SDS011;24220;48.168;14.024;2022-10-16T08:13:56;4.90;;;3.90;;
38435;SDS011;24220;48.168;14.024;2022-10-16T08:16:25;5.07;;;4.57;;
38435;SDS011;24220;48.168;14.024;2022-10-16T08:18:53;4.55;;;4.15;;
38435;SDS011;24220;48.168;14.024;2022-10-16T08:21:22;4.10;;;3.70;;
38435;SDS011;24220;48.168;14.024;2022-10-16T08:23:50;3.90;;;3.53;;
38435;SDS011;24220;48.168;14.024;2022-10-16T08:26:24;4.35;;;3.95;;
38435;SDS011;24220;48.168;14.024;2022-10-16T08:28:53;4.30;;;3.80;;
38435;SDS011;24220;48.168;14.024;2022-10-16T08:31:21;4.05;;;3.65;;
38435;SDS011;24220;48.168;14.024;2022-10-16T08:33:49;4.00;;;3.40;;
38435;SDS011;24220;48.168;14.024;2022-10-16T08:36:19;4.20;;;3.47;;
38435;SDS011;24220;48.168;14.024;2022-10-16T08:38:47;4.90;;;3.13;;
38435;SDS011;24220;48.168;14.024;2022-10-16T08:47:23;5.32;;;3.80;;
38435;SDS011;24220;48.168;14.024;2022-10-16T08:50:08;4.78;;;4.38;;
38435;SDS011;24220;48.168;14.024;2022-10-16T08:52:39;12.18;;;7.03;;
38435;SDS011;24220;48.168;14.024;2022-10-16T08:55:23;6.47;;;5.43;;
38435;SDS011;24220;48.168;14.024;2022-10-16T08:57:59;5.23;;;4.73;;
38435;SDS011;24220;48.168;14.024;2022-10-16T09:00:27;6.13;;;5.18;;
38435;SDS011;24220;48.168;14.024;2022-10-16T09:03:00;5.75;;;5.13;;
38435;SDS011;24220;48.168;14.024;2022-10-16T09:19:46;5.80;;;5.28;;
38435;SDS011;24220;48.168;14.024;2022-10-16T09:22:21;6.38;;;5.72;;
38435;SDS011;24220;48.168;14.024;2022-10-16T09:24:57;6.05;;;5.45;;
38435;SDS011;24220;48.168;14.024;2022-10-16T09:27:38;5.10;;;4.68;;
38435;SDS011;24220;48.168;14.024;2022-10-16T09:30:13;5.15;;;4.65;;
38435;SDS011;24220;48.168;14.024;2022-10-16T09:32:47;6.15;;;5.47;;
38435;SDS011;24220;48.168;14.024;2022-10-16T09:35:22;6.13;;;5.53;;
38435;SDS011;24220;48.168;14.024;2022-10-16T09:37:53;6.50;;;5.78;;
38435;SDS011;24220;48.168;14.024;2022-10-16T09:40:26;10.05;;;6.57;;
38435;SDS011;24220;48.168;14.024;2022-10-16T09:43:41;15.30;;;7.80;;
38435;SDS011;24220;48.168;14.024;2022-10-16T09:46:02;8.30;;;5.40;;
38435;SDS011;24220;48.168;14.024;2022-10-16T09:48:38;6.68;;;5.15;;
38435;SDS011;24220;48.168;14.024;2022-10-16T09:51:16;9.60;;;4.68;;
38435;SDS011;24220;48.168;14.024;2022-10-16T09:53:54;4.57;;;4.18;;
38435;SDS011;24220;48.168;14.024;2022-10-16T09:56:32;13.13;;;7.25;;
38435;SDS011;24220;48.168;14.024;2022-10-16T10:01:40;5.43;;;4.65;;
38435;SDS011;24220;48.168;14.024;2022-10-16T10:04:18;6.15;;;4.40;;
38435;SDS011;24220;48.168;14.024;2022-10-16T10:06:52;4.78;;;4.28;;
38435;SDS011;24220;48.168;14.024;2022-10-16T10:12:03;5.47;;;4.35;;
38435;SDS011;24220;48.168;14.024;2022-10-16T10:19:38;4.60;;;4.07;;
38435;SDS011;24220;48.168;14.024;2022-10-16T10:27:32;3.58;;;3.22;;
38435;SDS011;24220;48.168;14.024;2022-10-16T10:35:15;6.25;;;3.03;;
38435;SDS011;24220;48.168;14.024;2022-10-16T10:37:57;4.35;;;3.20;;
38435;SDS011;24220;48.168;14.024;2022-10-16T10:43:12;4.13;;;3.58;;
38435;SDS011;24220;48.168;14.024;2022-10-16T10:45:46;4.18;;;3.78;;
38435;SDS011;24220;48.168;14.024;2022-10-16T10:51:26;3.67;;;3.00;;
38435;SDS011;24220;48.168;14.024;2022-10-16T10:57:23;3.40;;;3.03;;
38435;SDS011;24220;48.168;14.024;2022-10-16T11:02:31;3.22;;;2.92;;
38435;SDS011;24220;48.168;14.024;2022-10-16T11:05:40;3.78;;;2.03;;
38435;SDS011;24220;48.168;14.024;2022-10-16T11:08:18;2.90;;;2.42;;
38435;SDS011;24220;48.168;14.024;2022-10-16T11:10:53;2.28;;;2.08;;
38435;SDS011;24220;48.168;14.024;2022-10-16T11:16:20;2.70;;;2.20;;
38435;SDS011;24220;48.168;14.024;2022-10-16T11:22:19;8.40;;;5.30;;
38435;SDS011;24220;48.168;14.024;2022-10-16T11:30:23;2.00;;;1.80;;
38435;SDS011;24220;48.168;14.024;2022-10-16T11:33:10;4.60;;;3.40;;
38435;SDS011;24220;48.168;14.024;2022-10-16T11:41:20;3.25;;;1.77;;
38435;SDS011;24220;48.168;14.024;2022-10-16T11:44:07;5.13;;;4.10;;
38435;SDS011;24220;48.168;14.024;2022-10-16T11:47:23;2.20;;;2.00;;
38435;SDS011;24220;48.168;14.024;2022-10-16T11:50:18;2.33;;;1.63;;
38435;SDS011;24220;48.168;14.024;2022-10-16T11:56:17;2.60;;;1.83;;
38435;SDS011;24220;48.168;14.024;2022-10-16T12:07:12;4.35;;;1.70;;
38435;SDS011;24220;48.168;14.024;2022-10-16T12:09:45;3.35;;;1.60;;
38435;SDS011;24220;48.168;14.024;2022-10-16T12:15:18;2.10;;;1.77;;
38435;SDS011;24220;48.168;14.024;2022-10-16T12:18:07;1.63;;;1.50;;
38435;SDS011;24220;48.168;14.024;2022-10-16T12:20:56;2.00;;;1.52;;
38435;SDS011;24220;48.168;14.024;2022-10-16T12:23:38;1.58;;;1.40;;
38435;SDS011;24220;48.168;14.024;2022-10-16T12:26:14;2.65;;;1.20;;
38435;SDS011;24220;48.168;14.024;2022-10-16T12:28:54;3.65;;;1.50;;
38435;SDS011;24220;48.168;14.024;2022-10-16T12:31:22;1.92;;;1.60;;
38435;SDS011;24220;48.168;14.024;2022-10-16T12:33:56;1.90;;;1.40;;
38435;SDS011;24220;48.168;14.024;2022-10-16T12:36:33;1.48;;;1.38;;
38435;SDS011;24220;48.168;14.024;2022-10-16T12:41:33;1.85;;;1.35;;
38435;SDS011;24220;48.168;14.024;2022-10-16T12:44:20;3.97;;;1.67;;
38435;SDS011;24220;48.168;14.024;2022-10-16T12:46:53;4.55;;;1.80;;
38435;SDS011;24220;48.168;14.024;2022-10-16T12:51:59;2.20;;;1.23;;
38435;SDS011;24220;48.168;14.024;2022-10-16T13:02:31;2.70;;;1.40;;
38435;SDS011;24220;48.168;14.024;2022-10-16T13:10:56;1.85;;;1.40;;
38435;SDS011;24220;48.168;14.024;2022-10-16T13:27:40;2.08;;;1.35;;
38435;SDS011;24220;48.168;14.024;2022-10-16T13:30:23;1.67;;;1.57;;
38435;SDS011;24220;48.168;14.024;2022-10-16T13:35:48;1.90;;;1.40;;
38435;SDS011;24220;48.168;14.024;2022-10-16T13:38:19;2.08;;;1.42;;
38435;SDS011;24220;48.168;14.024;2022-10-16T13:41:00;2.25;;;1.60;;
38435;SDS011;24220;48.168;14.024;2022-10-16T13:46:19;1.40;;;1.30;;
38435;SDS011;24220;48.168;14.024;2022-10-16T13:51:25;1.40;;;1.30;;
38435;SDS011;24220;48.168;14.024;2022-10-16T13:53:54;2.47;;;1.25;;
38435;SDS011;24220;48.168;14.024;2022-10-16T13:56:30;1.50;;;1.38;;
38435;SDS011;24220;48.168;14.024;2022-10-16T13:59:03;2.30;;;1.10;;
38435;SDS011;24220;48.168;14.024;2022-10-16T14:01:48;1.63;;;1.30;;
38435;SDS011;24220;48.168;14.024;2022-10-16T14:04:18;1.88;;;1.65;;
38435;SDS011;24220;48.168;14.024;2022-10-16T14:06:46;2.17;;;1.40;;
38435;SDS011;24220;48.168;14.024;2022-10-16T14:09:25;1.90;;;1.40;;
38435;SDS011;24220;48.168;14.024;2022-10-16T14:12:03;1.50;;;1.35;;
38435;SDS011;24220;48.168;14.024;2022-10-16T14:14:43;3.03;;;2.00;;
38435;SDS011;24220;48.168;14.024;2022-10-16T14:17:16;3.42;;;1.80;;
38435;SDS011;24220;48.168;14.024;2022-10-16T14:19:48;2.30;;;1.77;;
38435;SDS011;24220;48.168;14.024;2022-10-16T14:22:40;1.60;;;1.35;;
38435;SDS011;24220;48.168;14.024;2022-10-16T14:28:36;2.88;;;1.65;;
38435;SDS011;24220;48.168;14.024;2022-10-16T14:33:30;1.98;;;1.52;;
38435;SDS011;24220;48.168;14.024;2022-10-16T14:36:06;1.83;;;1.65;;
38435;SDS011;24220;48.168;14.024;2022-10-16T14:38:47;1.90;;;1.80;;
38435;SDS011;24220;48.168;14.024;2022-10-16T14:41:24;2.78;;;1.60;;
38435;SDS011;24220;48.168;14.024;2022-10-16T14:43:54;2.00;;;1.50;;
38435;SDS011;24220;48.168;14.024;2022-10-16T14:46:28;3.10;;;1.90;;
38435;SDS011;24220;48.168;14.024;2022-10-16T14:51:38;2.38;;;1.92;;
38435;SDS011;24220;48.168;14.024;2022-10-16T14:54:11;2.33;;;1.80;;
38435;SDS011;24220;48.168;14.024;2022-10-16T14:56:43;2.50;;;1.45;;
38435;SDS011;24220;48.168;14.024;2022-10-16T14:59:36;4.20;;;1.60;;
38435;SDS011;24220;48.168;14.024;2022-10-16T15:04:58;3.33;;;1.60;;
38435;SDS011;24220;48.168;14.024;2022-10-16T15:07:37;1.60;;;1.40;;
38435;SDS011;24220;48.168;14.024;2022-10-16T15:10:07;2.22;;;1.92;;
38435;SDS011;24220;48.168;14.024;2022-10-16T15:12:35;4.03;;;1.80;;
38435;SDS011;24220;48.168;14.024;2022-10-16T15:15:23;2.10;;;1.83;;
38435;SDS011;24220;48.168;14.024;2022-10-16T15:17:53;1.77;;;1.58;;
38435;SDS011;24220;48.168;14.024;2022-10-16T15:20:25;2.05;;;1.85;;
38435;SDS011;24220;48.168;14.024;2022-10-16T15:22:54;3.00;;;2.10;;
38435;SDS011;24220;48.168;14.024;2022-10-16T15:28:17;1.63;;;1.52;;
38435;SDS011;24220;48.168;14.024;2022-10-16T15:30:45;2.10;;;1.38;;
38435;SDS011;24220;48.168;14.024;2022-10-16T15:33:16;2.00;;;1.52;;
38435;SDS011;24220;48.168;14.024;2022-10-16T15:35:46;1.75;;;1.60;;
38435;SDS011;24220;48.168;14.024;2022-10-16T15:38:14;3.53;;;1.55;;
38435;SDS011;24220;48.168;14.024;2022-10-16T15:40:46;2.08;;;1.40;;
38435;SDS011;24220;48.168;14.024;2022-10-16T15:43:14;1.88;;;1.40;;
38435;SDS011;24220;48.168;14.024;2022-10-16T15:45:42;1.70;;;1.50;;
38435;SDS011;24220;48.168;14.024;2022-10-16T15:48:12;1.60;;;1.50;;
38435;SDS011;24220;48.168;14.024;2022-10-16T15:50:40;1.88;;;1.73;;
38435;SDS011;24220;48.168;14.024;2022-10-16T15:53:10;3.58;;;1.60;;
38435;SDS011;24220;48.168;14.024;2022-10-16T15:55:39;3.10;;;1.58;;
38435;SDS011;24220;48.168;14.024;2022-10-16T15:58:09;1.88;;;1.70;;
38435;SDS011;24220;48.168;14.024;2022-10-16T16:00:36;5.97;;;2.30;;
38435;SDS011;24220;48.168;14.024;2022-10-16T16:03:04;2.42;;;1.90;;
38435;SDS011;24220;48.168;14.024;2022-10-16T16:05:31;2.38;;;1.92;;
38435;SDS011;24220;48.168;14.024;2022-10-16T16:07:59;2.30;;;2.08;;
38435;SDS011;24220;48.168;14.024;2022-10-16T16:10:27;2.45;;;2.25;;
38435;SDS011;24220;48.168;14.024;2022-10-16T16:12:54;2.33;;;2.13;;
38435;SDS011;24220;48.168;14.024;2022-10-16T16:15:23;3.45;;;2.20;;
38435;SDS011;24220;48.168;14.024;2022-10-16T16:17:50;3.03;;;2.30;;
38435;SDS011;24220;48.168;14.024;2022-10-16T16:20:18;3.13;;;2.50;;
38435;SDS011;24220;48.168;14.024;2022-10-16T16:22:47;3.53;;;2.53;;
38435;SDS011;24220;48.168;14.024;2022-10-16T16:25:14;3.95;;;2.90;;
38435;SDS011;24220;48.168;14.024;2022-10-16T16:27:42;4.97;;;2.97;;
38435;SDS011;24220;48.168;14.024;2022-10-16T16:30:09;3.95;;;3.10;;
38435;SDS011;24220;48.168;14.024;2022-10-16T16:32:45;3.53;;;2.95;;
38435;SDS011;24220;48.168;14.024;2022-10-16T16:35:13;3.53;;;3.20;;
38435;SDS011;24220;48.168;14.024;2022-10-16T16:37:43;4.57;;;3.47;;
38435;SDS011;24220;48.168;14.024;2022-10-16T16:40:13;5.60;;;2.92;;
38435;SDS011;24220;48.168;14.024;2022-10-16T16:42:40;3.50;;;2.78;;
38435;SDS011;24220;48.168;14.024;2022-10-16T16:45:08;4.75;;;3.30;;
38435;SDS011;24220;48.168;14.024;2022-10-16T16:47:38;4.55;;;2.80;;
38435;SDS011;24220;48.168;14.024;2022-10-16T16:50:05;4.70;;;3.10;;
38435;SDS011;24220;48.168;14.024;2022-10-16T16:52:36;3.60;;;3.00;;
38435;SDS011;24220;48.168;14.024;2022-10-16T16:55:03;3.50;;;2.90;;
38435;SDS011;24220;48.168;14.024;2022-10-16T16:57:31;4.85;;;3.25;;
38435;SDS011;24220;48.168;14.024;2022-10-16T16:59:58;5.50;;;3.15;;
38435;SDS011;24220;48.168;14.024;2022-10-16T17:02:28;4.57;;;3.53;;
38435;SDS011;24220;48.168;14.024;2022-10-16T17:04:55;4.40;;;3.53;;
38435;SDS011;24220;48.168;14.024;2022-10-16T17:07:24;4.78;;;3.20;;
38435;SDS011;24220;48.168;14.024;2022-10-16T17:09:53;4.70;;;3.22;;
38435;SDS011;24220;48.168;14.024;2022-10-16T17:12:21;3.78;;;3.13;;
38435;SDS011;24220;48.168;14.024;2022-10-16T17:14:49;4.22;;;3.30;;
38435;SDS011;24220;48.168;14.024;2022-10-16T17:17:19;7.85;;;3.75;;
38435;SDS011;24220;48.168;14.024;2022-10-16T17:19:48;4.82;;;3.92;;
38435;SDS011;24220;48.168;14.024;2022-10-16T17:22:17;6.80;;;4.57;;
38435;SDS011;24220;48.168;14.024;2022-10-16T17:24:48;5.90;;;4.72;;
38435;SDS011;24220;48.168;14.024;2022-10-16T17:27:17;7.07;;;5.13;;
38435;SDS011;24220;48.168;14.024;2022-10-16T17:29:49;7.15;;;6.38;;
38435;SDS011;24220;48.168;14.024;2022-10-16T17:34:46;7.93;;;7.13;;
38435;SDS011;24220;48.168;14.024;2022-10-16T17:37:15;6.93;;;6.22;;
38435;SDS011;24220;48.168;14.024;2022-10-16T17:39:48;11.43;;;6.38;;